sensor_id;sensor_type;location;lat;lon;timestamp;pressure;altitude;pressure_sealevel;temperature;humidity
49915;BME280;35806;47.958;13.158;2023-03-26T00:00:49;94257.38;;;6.40;45.14
49915;BME280;35806;47.958;13.158;2023-03-26T00:03:17;94255.13;;;6.57;45.32
49915;BME280;35806;47.958;13.158;2023-03-26T00:05:45;94254.99;;;6.48;45.09
49915;BME280;35806;47.958;13.158;2023-03-26T00:08:13;94249.83;;;7.18;43.74
49915;BME280;35806;47.958;13.158;2023-03-26T00:10:42;94251.09;;;6.64;44.45
49915;BME280;35806;47.958;13.158;2023-03-26T00:13:09;94244.41;;;6.40;44.98
49915;BME280;35806;47.958;13.158;2023-03-26T00:15:37;94248.16;;;6.37;46.00
49915;BME280;35806;47.958;13.158;2023-03-26T00:18:04;94242.70;;;6.70;44.41
49915;BME280;35806;47.958;13.158;2023-03-26T00:20:32;94241.31;;;6.76;46.04
49915;BME280;35806;47.958;13.158;2023-03-26T00:22:59;94242.45;;;6.44;46.07
49915;BME280;35806;47.958;13.158;2023-03-26T00:25:27;94243.28;;;6.41;45.99
49915;BME280;35806;47.958;13.158;2023-03-26T00:27:55;94245.17;;;6.30;46.63
49915;BME280;35806;47.958;13.158;2023-03-26T00:30:22;94244.85;;;6.57;46.10
49915;BME280;35806;47.958;13.158;2023-03-26T00:32:50;94244.89;;;7.27;44.99
49915;BME280;35806;47.958;13.158;2023-03-26T00:35:17;94243.03;;;7.14;44.59
49915;BME280;35806;47.958;13.158;2023-03-26T00:37:45;94245.24;;;6.82;44.73
49915;BME280;35806;47.958;13.158;2023-03-26T00:40:13;94235.70;;;6.78;45.90
49915;BME280;35806;47.958;13.158;2023-03-26T00:42:40;94231.47;;;6.19;46.97
49915;BME280;35806;47.958;13.158;2023-03-26T00:45:07;94233.91;;;6.80;45.86
49915;BME280;35806;47.958;13.158;2023-03-26T00:47:35;94226.79;;;6.38;46.09
49915;BME280;35806;47.958;13.158;2023-03-26T00:50:03;94226.32;;;6.25;46.82
49915;BME280;35806;47.958;13.158;2023-03-26T00:52:30;94224.88;;;5.11;49.08
49915;BME280;35806;47.958;13.158;2023-03-26T00:54:58;94227.70;;;6.84;47.59
49915;BME280;35806;47.958;13.158;2023-03-26T00:57:26;94220.64;;;7.00;45.63
49915;BME280;35806;47.958;13.158;2023-03-26T00:59:53;94223.84;;;6.73;45.96
49915;BME280;35806;47.958;13.158;2023-03-26T01:02:20;94220.28;;;5.49;49.59
49915;BME280;35806;47.958;13.158;2023-03-26T01:04:53;94205.31;;;6.12;48.27
49915;BME280;35806;47.958;13.158;2023-03-26T01:07:23;94199.01;;;6.49;46.87
49915;BME280;35806;47.958;13.158;2023-03-26T01:09:51;94201.37;;;5.94;46.95
49915;BME280;35806;47.958;13.158;2023-03-26T01:12:22;94192.61;;;6.72;46.73
49915;BME280;35806;47.958;13.158;2023-03-26T01:14:53;94191.35;;;6.56;46.99
49915;BME280;35806;47.958;13.158;2023-03-26T01:17:23;94192.00;;;6.01;48.98
49915;BME280;35806;47.958;13.158;2023-03-26T01:19:56;94188.39;;;5.88;49.05
49915;BME280;35806;47.958;13.158;2023-03-26T01:22:26;94186.01;;;6.33;47.40
49915;BME280;35806;47.958;13.158;2023-03-26T01:24:54;94180.15;;;5.01;50.37
49915;BME280;35806;47.958;13.158;2023-03-26T01:27:27;94179.22;;;5.41;50.95
49915;BME280;35806;47.958;13.158;2023-03-26T01:30:00;94174.15;;;5.46;50.38
49915;BME280;35806;47.958;13.158;2023-03-26T01:32:39;94175.31;;;6.41;48.64
49915;BME280;35806;47.958;13.158;2023-03-26T01:35:19;94175.59;;;6.88;46.74
49915;BME280;35806;47.958;13.158;2023-03-26T01:37:56;94178.02;;;6.61;47.22
49915;BME280;35806;47.958;13.158;2023-03-26T01:40:32;94178.79;;;6.76;46.53
49915;BME280;35806;47.958;13.158;2023-03-26T01:43:07;94180.02;;;6.56;47.33
49915;BME280;35806;47.958;13.158;2023-03-26T01:45:40;94181.27;;;6.95;45.94
49915;BME280;35806;47.958;13.158;2023-03-26T01:48:08;94178.96;;;6.37;47.52
49915;BME280;35806;47.958;13.158;2023-03-26T01:50:41;94185.61;;;6.54;47.10
49915;BME280;35806;47.958;13.158;2023-03-26T01:53:11;94179.01;;;6.88;46.76
49915;BME280;35806;47.958;13.158;2023-03-26T01:55:47;94187.81;;;6.41;46.69
49915;BME280;35806;47.958;13.158;2023-03-26T01:58:25;94184.93;;;6.67;47.48
49915;BME280;35806;47.958;13.158;2023-03-26T02:00:58;94182.52;;;7.10;46.61
49915;BME280;35806;47.958;13.158;2023-03-26T02:03:30;94183.09;;;6.27;47.67
49915;BME280;35806;47.958;13.158;2023-03-26T02:06:02;94180.10;;;6.88;47.36
49915;BME280;35806;47.958;13.158;2023-03-26T02:08:33;94182.96;;;6.58;47.79
49915;BME280;35806;47.958;13.158;2023-03-26T02:11:05;94181.58;;;5.92;48.21
49915;BME280;35806;47.958;13.158;2023-03-26T02:13:34;94183.70;;;6.25;49.41
49915;BME280;35806;47.958;13.158;2023-03-26T02:16:03;94183.96;;;5.39;50.83
49915;BME280;35806;47.958;13.158;2023-03-26T02:18:30;94183.92;;;6.61;48.86
49915;BME280;35806;47.958;13.158;2023-03-26T02:20:58;94182.74;;;6.44;48.21
49915;BME280;35806;47.958;13.158;2023-03-26T02:23:25;94178.26;;;6.02;48.87
49915;BME280;35806;47.958;13.158;2023-03-26T02:25:53;94186.48;;;6.13;48.84
49915;BME280;35806;47.958;13.158;2023-03-26T02:28:26;94185.88;;;5.64;49.42
49915;BME280;35806;47.958;13.158;2023-03-26T02:30:53;94187.62;;;6.29;48.42
49915;BME280;35806;47.958;13.158;2023-03-26T02:33:22;94189.03;;;6.09;49.06
49915;BME280;35806;47.958;13.158;2023-03-26T02:35:50;94189.66;;;5.90;49.59
49915;BME280;35806;47.958;13.158;2023-03-26T02:38:17;94188.58;;;6.09;49.07
49915;BME280;35806;47.958;13.158;2023-03-26T02:40:45;94193.12;;;5.75;49.27
49915;BME280;35806;47.958;13.158;2023-03-26T02:43:12;94194.76;;;6.28;49.12
49915;BME280;35806;47.958;13.158;2023-03-26T02:45:40;94186.87;;;5.49;49.40
49915;BME280;35806;47.958;13.158;2023-03-26T02:48:08;94184.78;;;5.68;49.37
49915;BME280;35806;47.958;13.158;2023-03-26T02:50:36;94180.68;;;5.88;49.41
49915;BME280;35806;47.958;13.158;2023-03-26T02:53:03;94186.59;;;6.21;49.74
49915;BME280;35806;47.958;13.158;2023-03-26T02:55:30;94187.21;;;6.43;48.85
49915;BME280;35806;47.958;13.158;2023-03-26T02:57:58;94180.53;;;5.69;49.86
49915;BME280;35806;47.958;13.158;2023-03-26T03:00:25;94177.78;;;6.12;49.93
49915;BME280;35806;47.958;13.158;2023-03-26T03:02:52;94182.54;;;6.16;49.77
49915;BME280;35806;47.958;13.158;2023-03-26T03:05:20;94183.05;;;6.15;48.87
49915;BME280;35806;47.958;13.158;2023-03-26T03:07:47;94178.28;;;6.22;48.49
49915;BME280;35806;47.958;13.158;2023-03-26T03:10:15;94181.72;;;5.56;50.78
49915;BME280;35806;47.958;13.158;2023-03-26T03:12:42;94170.14;;;5.82;50.27
49915;BME280;35806;47.958;13.158;2023-03-26T03:15:11;94173.42;;;6.26;49.91
49915;BME280;35806;47.958;13.158;2023-03-26T03:17:38;94174.18;;;5.84;49.62
49915;BME280;35806;47.958;13.158;2023-03-26T03:20:07;94171.50;;;5.97;50.12
49915;BME280;35806;47.958;13.158;2023-03-26T03:22:35;94163.08;;;5.44;51.14
49915;BME280;35806;47.958;13.158;2023-03-26T03:25:02;94167.43;;;5.97;50.68
49915;BME280;35806;47.958;13.158;2023-03-26T03:27:29;94167.58;;;6.37;49.78
49915;BME280;35806;47.958;13.158;2023-03-26T03:29:56;94164.56;;;5.70;51.49
49915;BME280;35806;47.958;13.158;2023-03-26T03:32:23;94167.63;;;5.17;52.42
49915;BME280;35806;47.958;13.158;2023-03-26T03:34:51;94165.77;;;5.55;51.59
49915;BME280;35806;47.958;13.158;2023-03-26T03:37:18;94163.18;;;5.39;52.21
49915;BME280;35806;47.958;13.158;2023-03-26T03:39:46;94158.56;;;6.03;50.49
49915;BME280;35806;47.958;13.158;2023-03-26T03:42:13;94161.07;;;6.14;49.98
49915;BME280;35806;47.958;13.158;2023-03-26T03:44:40;94154.65;;;6.16;49.30
49915;BME280;35806;47.958;13.158;2023-03-26T03:47:08;94154.83;;;7.32;47.91
49915;BME280;35806;47.958;13.158;2023-03-26T03:49:36;94149.32;;;6.29;48.99
49915;BME280;35806;47.958;13.158;2023-03-26T03:52:03;94148.63;;;6.38;49.00
49915;BME280;35806;47.958;13.158;2023-03-26T03:54:31;94145.99;;;7.13;48.15
49915;BME280;35806;47.958;13.158;2023-03-26T03:56:58;94144.45;;;7.70;46.95
49915;BME280;35806;47.958;13.158;2023-03-26T03:59:25;94137.23;;;7.43;46.20
49915;BME280;35806;47.958;13.158;2023-03-26T04:01:52;94135.86;;;7.96;45.83
49915;BME280;35806;47.958;13.158;2023-03-26T04:04:20;94137.80;;;8.02;46.34
49915;BME280;35806;47.958;13.158;2023-03-26T04:06:47;94132.69;;;8.40;45.05
49915;BME280;35806;47.958;13.158;2023-03-26T04:09:13;94131.74;;;7.59;46.03
49915;BME280;35806;47.958;13.158;2023-03-26T04:11:41;94127.68;;;7.28;47.31
49915;BME280;35806;47.958;13.158;2023-03-26T04:14:08;94122.54;;;7.91;46.67
49915;BME280;35806;47.958;13.158;2023-03-26T04:16:35;94117.97;;;7.74;46.34
49915;BME280;35806;47.958;13.158;2023-03-26T04:19:02;94119.24;;;7.46;46.98
49915;BME280;35806;47.958;13.158;2023-03-26T04:21:29;94119.83;;;8.02;46.75
49915;BME280;35806;47.958;13.158;2023-03-26T04:23:56;94111.23;;;7.76;46.66
49915;BME280;35806;47.958;13.158;2023-03-26T04:26:29;94111.53;;;7.30;47.74
49915;BME280;35806;47.958;13.158;2023-03-26T04:28:59;94104.58;;;7.99;47.24
49915;BME280;35806;47.958;13.158;2023-03-26T04:31:27;94105.02;;;7.54;48.30
49915;BME280;35806;47.958;13.158;2023-03-26T04:33:56;94102.82;;;7.18;49.27
49915;BME280;35806;47.958;13.158;2023-03-26T04:36:27;94096.23;;;8.09;48.00
49915;BME280;35806;47.958;13.158;2023-03-26T04:38:56;94096.56;;;7.38;48.69
49915;BME280;35806;47.958;13.158;2023-03-26T04:41:23;94096.14;;;8.29;46.64
49915;BME280;35806;47.958;13.158;2023-03-26T04:43:51;94098.09;;;7.95;47.76
49915;BME280;35806;47.958;13.158;2023-03-26T04:46:19;94099.09;;;8.00;47.96
49915;BME280;35806;47.958;13.158;2023-03-26T04:48:46;94099.09;;;7.74;48.03
49915;BME280;35806;47.958;13.158;2023-03-26T04:51:14;94100.86;;;6.86;50.29
49915;BME280;35806;47.958;13.158;2023-03-26T04:53:43;94088.99;;;7.26;49.81
49915;BME280;35806;47.958;13.158;2023-03-26T04:56:15;94085.51;;;7.65;49.14
49915;BME280;35806;47.958;13.158;2023-03-26T04:58:49;94082.85;;;7.35;49.81
49915;BME280;35806;47.958;13.158;2023-03-26T05:01:17;94079.30;;;8.02;48.57
49915;BME280;35806;47.958;13.158;2023-03-26T05:03:44;94082.09;;;7.30;49.82
49915;BME280;35806;47.958;13.158;2023-03-26T05:06:12;94073.03;;;7.74;49.36
49915;BME280;35806;47.958;13.158;2023-03-26T05:08:39;94070.46;;;7.45;49.52
49915;BME280;35806;47.958;13.158;2023-03-26T05:11:09;94067.83;;;7.81;48.61
49915;BME280;35806;47.958;13.158;2023-03-26T05:13:37;94065.11;;;7.34;49.40
49915;BME280;35806;47.958;13.158;2023-03-26T05:16:05;94070.79;;;8.22;47.99
49915;BME280;35806;47.958;13.158;2023-03-26T05:18:32;94071.94;;;7.58;49.36
49915;BME280;35806;47.958;13.158;2023-03-26T05:20:59;94075.21;;;7.67;49.89
49915;BME280;35806;47.958;13.158;2023-03-26T05:23:26;94068.91;;;7.52;50.73
49915;BME280;35806;47.958;13.158;2023-03-26T05:25:54;94074.80;;;6.70;52.15
49915;BME280;35806;47.958;13.158;2023-03-26T05:28:21;94072.91;;;6.77;53.29
49915;BME280;35806;47.958;13.158;2023-03-26T05:30:48;94078.70;;;5.92;54.42
49915;BME280;35806;47.958;13.158;2023-03-26T05:33:16;94079.47;;;5.93;54.92
49915;BME280;35806;47.958;13.158;2023-03-26T05:35:44;94085.07;;;5.56;55.83
49915;BME280;35806;47.958;13.158;2023-03-26T05:38:11;94086.11;;;5.89;57.65
49915;BME280;35806;47.958;13.158;2023-03-26T05:40:38;94083.07;;;4.65;59.35
49915;BME280;35806;47.958;13.158;2023-03-26T05:43:05;94091.67;;;4.46;63.02
49915;BME280;35806;47.958;13.158;2023-03-26T05:45:52;94092.84;;;4.67;65.53
49915;BME280;35806;47.958;13.158;2023-03-26T05:48:20;94096.63;;;4.43;65.84
49915;BME280;35806;47.958;13.158;2023-03-26T05:50:47;94096.58;;;3.76;67.43
49915;BME280;35806;47.958;13.158;2023-03-26T05:53:15;94089.12;;;4.37;68.47
49915;BME280;35806;47.958;13.158;2023-03-26T05:55:42;94088.56;;;3.49;69.56
49915;BME280;35806;47.958;13.158;2023-03-26T05:58:10;94085.09;;;4.13;67.59
49915;BME280;35806;47.958;13.158;2023-03-26T06:00:38;94080.04;;;4.57;66.56
49915;BME280;35806;47.958;13.158;2023-03-26T06:03:05;94071.78;;;5.58;64.32
49915;BME280;35806;47.958;13.158;2023-03-26T06:05:34;94072.36;;;6.22;61.95
49915;BME280;35806;47.958;13.158;2023-03-26T06:08:02;94070.45;;;5.99;61.65
49915;BME280;35806;47.958;13.158;2023-03-26T06:10:29;94070.71;;;5.85;62.27
49915;BME280;35806;47.958;13.158;2023-03-26T06:12:57;94068.63;;;5.01;64.23
49915;BME280;35806;47.958;13.158;2023-03-26T06:15:24;94065.45;;;5.52;63.77
49915;BME280;35806;47.958;13.158;2023-03-26T06:17:51;94068.70;;;5.85;63.11
49915;BME280;35806;47.958;13.158;2023-03-26T06:20:18;94065.21;;;5.32;63.99
49915;BME280;35806;47.958;13.158;2023-03-26T06:22:46;94066.76;;;5.73;63.50
49915;BME280;35806;47.958;13.158;2023-03-26T06:25:14;94065.62;;;6.49;61.81
49915;BME280;35806;47.958;13.158;2023-03-26T06:27:41;94063.48;;;6.03;62.28
49915;BME280;35806;47.958;13.158;2023-03-26T06:30:10;94058.69;;;5.67;63.46
49915;BME280;35806;47.958;13.158;2023-03-26T06:32:37;94056.47;;;6.08;60.85
49915;BME280;35806;47.958;13.158;2023-03-26T06:35:05;94054.71;;;6.37;60.52
49915;BME280;35806;47.958;13.158;2023-03-26T06:37:33;94047.98;;;6.56;60.34
49915;BME280;35806;47.958;13.158;2023-03-26T06:40:00;94044.37;;;6.63;61.06
49915;BME280;35806;47.958;13.158;2023-03-26T06:42:28;94042.76;;;5.70;61.97
49915;BME280;35806;47.958;13.158;2023-03-26T06:44:55;94036.68;;;5.93;62.04
49915;BME280;35806;47.958;13.158;2023-03-26T06:47:23;94036.28;;;5.08;63.76
49915;BME280;35806;47.958;13.158;2023-03-26T06:49:50;94029.97;;;5.53;62.35
49915;BME280;35806;47.958;13.158;2023-03-26T06:52:18;94024.11;;;5.92;62.41
49915;BME280;35806;47.958;13.158;2023-03-26T06:54:45;94009.81;;;5.93;61.59
49915;BME280;35806;47.958;13.158;2023-03-26T06:57:13;93999.86;;;6.48;60.55
49915;BME280;35806;47.958;13.158;2023-03-26T06:59:41;93994.85;;;5.95;59.86
49915;BME280;35806;47.958;13.158;2023-03-26T07:02:09;93989.29;;;6.71;59.91
49915;BME280;35806;47.958;13.158;2023-03-26T07:04:37;93987.99;;;6.76;58.87
49915;BME280;35806;47.958;13.158;2023-03-26T07:07:04;93981.25;;;6.78;59.54
49915;BME280;35806;47.958;13.158;2023-03-26T07:09:32;93977.47;;;6.54;58.90
49915;BME280;35806;47.958;13.158;2023-03-26T07:12:00;93974.72;;;6.41;59.70
49915;BME280;35806;47.958;13.158;2023-03-26T07:14:27;93966.94;;;7.32;57.64
49915;BME280;35806;47.958;13.158;2023-03-26T07:16:54;93963.14;;;7.27;58.41
49915;BME280;35806;47.958;13.158;2023-03-26T07:19:22;93959.86;;;7.73;56.87
49915;BME280;35806;47.958;13.158;2023-03-26T07:21:50;93955.62;;;7.63;56.97
49915;BME280;35806;47.958;13.158;2023-03-26T07:24:18;93952.39;;;7.03;58.69
49915;BME280;35806;47.958;13.158;2023-03-26T07:26:52;93953.01;;;8.04;55.77
49915;BME280;35806;47.958;13.158;2023-03-26T07:29:33;93945.28;;;8.71;55.29
49915;BME280;35806;47.958;13.158;2023-03-26T07:32:08;93943.08;;;8.89;54.92
49915;BME280;35806;47.958;13.158;2023-03-26T07:34:50;93943.41;;;8.99;52.48
49915;BME280;35806;47.958;13.158;2023-03-26T07:37:33;93944.92;;;9.52;51.97
49915;BME280;35806;47.958;13.158;2023-03-26T07:40:10;93941.74;;;9.78;52.15
49915;BME280;35806;47.958;13.158;2023-03-26T07:42:50;93940.16;;;9.85;50.89
49915;BME280;35806;47.958;13.158;2023-03-26T07:45:24;93939.30;;;9.85;50.57
49915;BME280;35806;47.958;13.158;2023-03-26T07:47:55;93936.66;;;9.16;50.58
49915;BME280;35806;47.958;13.158;2023-03-26T07:50:23;93934.10;;;10.18;49.48
49915;BME280;35806;47.958;13.158;2023-03-26T07:52:52;93926.97;;;10.02;49.71
49915;BME280;35806;47.958;13.158;2023-03-26T07:55:20;93917.09;;;9.72;51.46
49915;BME280;35806;47.958;13.158;2023-03-26T07:57:56;93914.43;;;9.26;52.04
49915;BME280;35806;47.958;13.158;2023-03-26T08:00:30;93908.86;;;8.84;52.47
49915;BME280;35806;47.958;13.158;2023-03-26T08:03:51;93904.11;;;9.55;50.76
49915;BME280;35806;47.958;13.158;2023-03-26T08:06:26;93890.66;;;9.76;50.28
49915;BME280;35806;47.958;13.158;2023-03-26T08:09:01;93884.61;;;9.59;51.41
49915;BME280;35806;47.958;13.158;2023-03-26T08:11:37;93875.07;;;9.51;50.72
49915;BME280;35806;47.958;13.158;2023-03-26T08:14:23;93872.25;;;10.14;49.66
49915;BME280;35806;47.958;13.158;2023-03-26T08:16:56;93864.92;;;9.59;49.75
49915;BME280;35806;47.958;13.158;2023-03-26T08:19:37;93855.06;;;9.05;51.11
49915;BME280;35806;47.958;13.158;2023-03-26T08:22:12;93841.74;;;9.68;50.29
49915;BME280;35806;47.958;13.158;2023-03-26T08:25:03;93835.34;;;9.59;48.79
49915;BME280;35806;47.958;13.158;2023-03-26T08:27:39;93828.89;;;8.16;51.32
49915;BME280;35806;47.958;13.158;2023-03-26T08:30:12;93818.50;;;10.07;48.50
49915;BME280;35806;47.958;13.158;2023-03-26T08:32:41;93809.53;;;9.14;50.22
49915;BME280;35806;47.958;13.158;2023-03-26T08:35:16;93809.01;;;9.88;48.25
49915;BME280;35806;47.958;13.158;2023-03-26T08:38:04;93803.02;;;9.52;48.64
49915;BME280;35806;47.958;13.158;2023-03-26T08:41:17;93789.45;;;9.96;48.17
49915;BME280;35806;47.958;13.158;2023-03-26T08:45:19;93779.76;;;10.16;47.21
49915;BME280;35806;47.958;13.158;2023-03-26T08:53:02;93752.60;;;11.79;45.82
49915;BME280;35806;47.958;13.158;2023-03-26T08:55:40;93746.64;;;11.17;43.75
49915;BME280;35806;47.958;13.158;2023-03-26T09:00:38;93742.91;;;11.45;44.44
49915;BME280;35806;47.958;13.158;2023-03-26T09:03:38;93743.20;;;11.04;44.51
49915;BME280;35806;47.958;13.158;2023-03-26T09:06:25;93741.24;;;11.10;44.64
49915;BME280;35806;47.958;13.158;2023-03-26T09:09:11;93732.99;;;10.77;42.57
49915;BME280;35806;47.958;13.158;2023-03-26T09:12:13;93729.01;;;11.72;43.59
49915;BME280;35806;47.958;13.158;2023-03-26T09:17:34;93723.33;;;12.40;40.76
49915;BME280;35806;47.958;13.158;2023-03-26T09:20:38;93718.54;;;11.79;40.95
49915;BME280;35806;47.958;13.158;2023-03-26T09:24:04;93706.96;;;12.45;39.48
49915;BME280;35806;47.958;13.158;2023-03-26T09:26:45;93697.60;;;11.40;40.57
49915;BME280;35806;47.958;13.158;2023-03-26T09:29:32;93685.11;;;12.52;41.10
49915;BME280;35806;47.958;13.158;2023-03-26T09:34:45;93650.82;;;12.19;42.54
49915;BME280;35806;47.958;13.158;2023-03-26T09:37:24;93647.70;;;11.56;43.06
49915;BME280;35806;47.958;13.158;2023-03-26T09:40:07;93649.83;;;11.47;41.15
49915;BME280;35806;47.958;13.158;2023-03-26T09:42:44;93665.86;;;11.76;41.40
49915;BME280;35806;47.958;13.158;2023-03-26T09:45:33;93671.62;;;12.55;39.42
49915;BME280;35806;47.958;13.158;2023-03-26T09:48:24;93670.85;;;12.20;38.53
49915;BME280;35806;47.958;13.158;2023-03-26T09:51:06;93661.37;;;13.06;39.52
49915;BME280;35806;47.958;13.158;2023-03-26T09:54:25;93651.13;;;12.83;37.94
49915;BME280;35806;47.958;13.158;2023-03-26T09:57:04;93638.36;;;13.52;37.59
49915;BME280;35806;47.958;13.158;2023-03-26T09:59:53;93629.76;;;12.63;35.90
49915;BME280;35806;47.958;13.158;2023-03-26T10:02:42;93626.31;;;12.24;35.41
49915;BME280;35806;47.958;13.158;2023-03-26T10:05:42;93622.56;;;12.40;37.79
49915;BME280;35806;47.958;13.158;2023-03-26T10:09:28;93618.98;;;12.02;37.31
49915;BME280;35806;47.958;13.158;2023-03-26T10:12:11;93620.04;;;13.13;35.18
49915;BME280;35806;47.958;13.158;2023-03-26T10:14:47;93615.40;;;12.64;36.44
49915;BME280;35806;47.958;13.158;2023-03-26T10:17:33;93618.66;;;13.44;37.90
49915;BME280;35806;47.958;13.158;2023-03-26T10:20:20;93616.88;;;13.18;36.52
49915;BME280;35806;47.958;13.158;2023-03-26T10:23:01;93614.70;;;13.20;36.11
49915;BME280;35806;47.958;13.158;2023-03-26T10:25:41;93610.34;;;13.47;33.95
49915;BME280;35806;47.958;13.158;2023-03-26T10:28:32;93608.23;;;14.09;32.92
49915;BME280;35806;47.958;13.158;2023-03-26T10:31:22;93609.20;;;14.50;34.16
49915;BME280;35806;47.958;13.158;2023-03-26T10:33:59;93613.91;;;14.44;31.57
49915;BME280;35806;47.958;13.158;2023-03-26T10:36:31;93607.08;;;14.63;32.76
49915;BME280;35806;47.958;13.158;2023-03-26T10:39:09;93595.52;;;14.74;31.36
49915;BME280;35806;47.958;13.158;2023-03-26T10:41:52;93599.34;;;14.39;31.07
49915;BME280;35806;47.958;13.158;2023-03-26T10:44:48;93604.26;;;14.68;30.14
49915;BME280;35806;47.958;13.158;2023-03-26T10:47:32;93615.11;;;13.21;32.05
49915;BME280;35806;47.958;13.158;2023-03-26T10:50:18;93634.46;;;14.91;31.62
49915;BME280;35806;47.958;13.158;2023-03-26T10:53:39;93655.53;;;10.74;36.63
49915;BME280;35806;47.958;13.158;2023-03-26T10:56:16;93679.78;;;8.78;40.55
49915;BME280;35806;47.958;13.158;2023-03-26T10:58:47;93702.69;;;7.64;46.97
49915;BME280;35806;47.958;13.158;2023-03-26T11:01:21;93709.21;;;7.75;47.91
49915;BME280;35806;47.958;13.158;2023-03-26T11:03:51;93731.16;;;5.98;54.51
49915;BME280;35806;47.958;13.158;2023-03-26T11:06:28;93748.91;;;5.47;58.40
49915;BME280;35806;47.958;13.158;2023-03-26T11:09:04;93752.47;;;5.03;56.19
49915;BME280;35806;47.958;13.158;2023-03-26T11:11:45;93721.11;;;6.15;54.52
49915;BME280;35806;47.958;13.158;2023-03-26T11:14:20;93710.85;;;6.15;57.77
49915;BME280;35806;47.958;13.158;2023-03-26T11:16:59;93705.01;;;8.35;50.59
49915;BME280;35806;47.958;13.158;2023-03-26T11:19:34;93703.17;;;7.51;54.00
49915;BME280;35806;47.958;13.158;2023-03-26T11:22:14;93690.84;;;8.18;49.74
49915;BME280;35806;47.958;13.158;2023-03-26T11:24:55;93665.04;;;8.06;49.64
49915;BME280;35806;47.958;13.158;2023-03-26T11:27:39;93630.88;;;9.21;49.48
49915;BME280;35806;47.958;13.158;2023-03-26T11:30:19;93627.63;;;9.58;46.87
49915;BME280;35806;47.958;13.158;2023-03-26T11:32:52;93625.26;;;9.52;45.37
49915;BME280;35806;47.958;13.158;2023-03-26T11:35:29;93621.81;;;10.66;43.43
49915;BME280;35806;47.958;13.158;2023-03-26T11:38:03;93630.50;;;10.72;43.66
49915;BME280;35806;47.958;13.158;2023-03-26T11:40:40;93636.32;;;11.45;40.36
49915;BME280;35806;47.958;13.158;2023-03-26T11:43:11;93636.66;;;11.26;42.62
49915;BME280;35806;47.958;13.158;2023-03-26T11:45:43;93635.03;;;11.03;42.19
49915;BME280;35806;47.958;13.158;2023-03-26T11:48:14;93636.90;;;11.89;42.71
49915;BME280;35806;47.958;13.158;2023-03-26T11:50:46;93639.47;;;11.47;42.04
49915;BME280;35806;47.958;13.158;2023-03-26T11:53:17;93648.89;;;11.58;42.34
49915;BME280;35806;47.958;13.158;2023-03-26T11:55:48;93658.53;;;10.77;43.98
49915;BME280;35806;47.958;13.158;2023-03-26T11:58:28;93662.36;;;9.57;49.19
49915;BME280;35806;47.958;13.158;2023-03-26T12:00:56;93663.56;;;9.41;49.95
49915;BME280;35806;47.958;13.158;2023-03-26T12:03:24;93664.99;;;9.28;51.69
49915;BME280;35806;47.958;13.158;2023-03-26T12:05:56;93661.78;;;8.22;54.61
49915;BME280;35806;47.958;13.158;2023-03-26T12:08:31;93655.29;;;7.65;54.81
49915;BME280;35806;47.958;13.158;2023-03-26T12:11:04;93647.36;;;7.82;58.08
49915;BME280;35806;47.958;13.158;2023-03-26T12:13:35;93645.48;;;8.42;57.63
49915;BME280;35806;47.958;13.158;2023-03-26T12:16:08;93636.75;;;7.29;58.96
49915;BME280;35806;47.958;13.158;2023-03-26T12:18:37;93623.90;;;8.66;56.59
49915;BME280;35806;47.958;13.158;2023-03-26T12:21:07;93620.28;;;9.09;55.27
49915;BME280;35806;47.958;13.158;2023-03-26T12:23:54;93618.13;;;8.78;54.74
49915;BME280;35806;47.958;13.158;2023-03-26T12:26:30;93603.36;;;8.96;55.27
49915;BME280;35806;47.958;13.158;2023-03-26T12:29:06;93600.42;;;10.03;51.73
49915;BME280;35806;47.958;13.158;2023-03-26T12:31:43;93601.90;;;9.74;53.62
49915;BME280;35806;47.958;13.158;2023-03-26T12:34:15;93588.67;;;9.33;53.72
49915;BME280;35806;47.958;13.158;2023-03-26T12:36:49;93586.60;;;10.45;52.47
49915;BME280;35806;47.958;13.158;2023-03-26T12:39:35;93593.10;;;9.76;52.24
49915;BME280;35806;47.958;13.158;2023-03-26T12:42:23;93573.71;;;10.32;54.96
49915;BME280;35806;47.958;13.158;2023-03-26T12:44:52;93575.76;;;10.34;52.33
49915;BME280;35806;47.958;13.158;2023-03-26T12:47:24;93578.94;;;11.12;52.39
49915;BME280;35806;47.958;13.158;2023-03-26T12:49:52;93572.77;;;10.49;52.52
49915;BME280;35806;47.958;13.158;2023-03-26T12:52:37;93572.40;;;10.72;51.94
49915;BME280;35806;47.958;13.158;2023-03-26T12:55:31;93573.39;;;10.55;52.46
49915;BME280;35806;47.958;13.158;2023-03-26T12:58:14;93572.65;;;10.77;49.20
49915;BME280;35806;47.958;13.158;2023-03-26T13:00:49;93570.13;;;10.11;50.35
49915;BME280;35806;47.958;13.158;2023-03-26T13:03:32;93569.29;;;10.42;50.13
49915;BME280;35806;47.958;13.158;2023-03-26T13:06:17;93569.22;;;11.33;49.13
49915;BME280;35806;47.958;13.158;2023-03-26T13:09:06;93561.90;;;10.63;49.71
49915;BME280;35806;47.958;13.158;2023-03-26T13:11:47;93561.00;;;10.24;51.22
49915;BME280;35806;47.958;13.158;2023-03-26T13:14:31;93566.00;;;11.23;48.61
49915;BME280;35806;47.958;13.158;2023-03-26T13:17:07;93564.80;;;10.77;51.15
49915;BME280;35806;47.958;13.158;2023-03-26T13:19:44;93564.88;;;11.07;51.17
49915;BME280;35806;47.958;13.158;2023-03-26T13:22:22;93568.62;;;10.16;52.01
49915;BME280;35806;47.958;13.158;2023-03-26T13:24:56;93561.34;;;9.95;53.44
49915;BME280;35806;47.958;13.158;2023-03-26T13:27:37;93559.03;;;10.35;53.24
49915;BME280;35806;47.958;13.158;2023-03-26T13:30:18;93551.99;;;10.74;50.97
49915;BME280;35806;47.958;13.158;2023-03-26T13:32:58;93538.61;;;10.29;54.56
49915;BME280;35806;47.958;13.158;2023-03-26T13:35:35;93546.26;;;10.05;52.99
49915;BME280;35806;47.958;13.158;2023-03-26T13:38:10;93546.62;;;10.75;53.89
49915;BME280;35806;47.958;13.158;2023-03-26T13:40:47;93547.89;;;10.13;53.09
49915;BME280;35806;47.958;13.158;2023-03-26T13:43:24;93550.05;;;10.70;52.66
49915;BME280;35806;47.958;13.158;2023-03-26T13:45:59;93550.42;;;10.56;51.37